НИСЛЭГИЙН ЦАГ УУРЫН ТӨВ

2017.12.14        EN 

Идэвхитэй хуудас: Нүүр хуудас arrow TAF&METAR arrow Latest arrow METAR 112200




Их уншигдсан
Сүүлд нэмэгдсэн
METAR 112200 Хэвлэ Имэйл
Бичсэн: Administrator   
Thursday, 11 November 2010
SAM031 ZMGT 112151
METAR ZMGT 112200Z 01014MPS //// SN BLSN SCT060 M05/M08 Q1009 NOSIG RMK QFE626.1 78=
SAMO31 ZMUB 112151
METAR ZMUB 112200Z 00000MPS 9999 SCT100 M13/M16 Q1007 NOSIG RMK QFE659.7 78=
SAMO31 ZMUG 112151
METAR ZMUG 112200Z 27002MPS //// SCT030 SCT100 M08/M10 Q1024 NOSIG RMK QFE685.4 83=
SAMO31 ZMUL 112153
METAR ZMUL 112200Z 30003MPS CAVOK M09/M18 Q1019 NOSIG RMK QFE619.8 50%=
SAMO31 ZMDZ 112153
METAR ZMDZ 112200Z 30009MPS //// BLSN SCT035 M07/M08 Q1009 NOSIG RMK QFE635.0 89=
SAMO31 ZMAH 112153
METAR ZMAH 112200Z 34006MPS //// SCT080 M13/M20 Q1008 NOSIG RMK QFE607.3 55=3D=
SAMO31 ZMUH 112153
METAR ZMUH 112200Z 00000MPS CAVOK M17/M20 Q1008 NOSIG RMK QFE665.8 76=
SAMO31 ZMMG 112153
METAR ZMMG 112200Z 32004MPS CAVOK M12/M16 Q1008 NOSIG RMK QFE639.0 68=
SAMO31 ZMBU 112155
METAR ZMBU 112200Z VRB01MPS CAVOK M12/M15 Q1004 NOSIG RMK QFE670.1 82=
SAMO31 ZMUB 112154
METAR ZMTL 112200Z VRB02MPS CAVOK M24/M24 Q1016 NOSIG RMK QFE620.0 100=
SAMO31 ZMKD 112154
METAR ZMKD 112200Z VRB01MPS //// SCT040 SCT100 M08/M10 Q1026 NOSIG RMK QFE641.0 82=3D=
SAMO31 ZMBH 112158
METAR ZMBH 112200Z 36002MPS CAVOK M14/M22 Q1009 NOSIG RMK QFE604.249=
SAMO31 ZMBH 112159 CCA
METAR ZMBH 112200Z 36003MPS CAVOK M14/M22 Q1009 NOSIG RMK QFE604.2 49=
SAMO31 ZMCD 112200
METAR ZMCD 112200Z VRB01MPS //// SCT100 M14/M16 Q1008 NOSIG RMK ST QFE691.6 85=
SAMO31 ZMMN 112200
METAR ZMMN 112200Z 27004MPS //// BKN100 M11/M20 Q1018 NOSIG RMK QFE653.4 46=
SAMO31 ZMAT 112202
METAR ZMAT 112200Z 00000MPS //// BKN030 SCT100 M13/M17 Q1013 NOSIG RMK QFE583.1 65=
SAMO31 ZMAT 112203 CCA
METAR ZMAT 112200Z 00000MPS //// BKN030 SCT100 M13/M17 Q1013 NOSIG RMK QFE583.1 65=
SAMO31 ZMUB 112205 RRA
METAR ZMOT 112200Z 32006MPS //// OVC080 M05/M07 Q1017 NOSIG RMK QFE653.5 83=

SAMO31 ZMUB 112223
METAR ZMUB 112230Z 00000MPS CAVOK M13/M15 Q1008 NOSIG RMK QFE650.0 84=
SAM031 ZMGT 112227
SPECI ZMGT 112230Z 36013MPS 340V040 //// SN BLSN SCT040 M05/M07 Q1010 NOSIG RMK QFE626.6 83=
Шинэчилсэн: ( Thursday, 11 November 2010 )
 
< Өмнөх   Дараах >
Онлайнд
Гишүүд: 258
Мэдээ: 325
Вэб холбоосууд: 10
Зочлогчид: 795440